Sahiwal Weather



Sahiwal's Current Weather

Temprature 14.59o clear sky

clear sky

Rain: 0 %

Min Temprature14.59o
Max Temprature14.59o
Humidity37
Wind Speed4.13 m/h
Sun Rise07:03:24
Sun Set17:35:06
Current Time: 23-Jan-2021 18:33:24
Lat/Lon: 30.6667, 73.1




Sahiwal's Geo Location



Sahiwal's Weather Forecast

Time Overall Temp Min Temp Max Temp Humidity Wind Speed Rain
23-Jan-2021 (Sat)
20:00:00 clear sky 16.630 14.110 16.630 32 4.81 m/h 0 %
23:00:00 clear sky 12.380 10.540 12.380 41 3.25 m/h 0 %
24-Jan-2021 (Sun)
02:00:00 clear sky 9.600 8.950 9.600 47 3.02 m/h 0 %
05:00:00 clear sky 8.320 8.230 8.320 57 2.03 m/h 0 %
08:00:00 clear sky 9.150 9.150 9.150 49 2.93 m/h 0 %
11:00:00 clear sky 18.010 18.010 18.010 26 4.9 m/h 0 %
14:00:00 clear sky 21.480 21.480 21.480 25 5.02 m/h 0 %
17:00:00 clear sky 18.770 18.770 18.770 30 2.77 m/h 0 %
20:00:00 clear sky 12.960 12.960 12.960 36 3.2 m/h 0 %
23:00:00 clear sky 10.900 10.900 10.900 43 2.92 m/h 0 %
25-Jan-2021 (Mon)
02:00:00 clear sky 10.240 10.240 10.240 47 2.62 m/h 0 %
05:00:00 clear sky 8.730 8.730 8.730 48 2.17 m/h 0 %
08:00:00 clear sky 9.650 9.650 9.650 44 1.98 m/h 0 %
11:00:00 clear sky 18.910 18.910 18.910 24 2.46 m/h 0 %
14:00:00 clear sky 22.360 22.360 22.360 20 2.83 m/h 0 %
17:00:00 clear sky 19.140 19.140 19.140 25 1.57 m/h 0 %
20:00:00 clear sky 12.770 12.770 12.770 37 2.16 m/h 0 %
23:00:00 clear sky 11.500 11.500 11.500 40 2.06 m/h 0 %
26-Jan-2021 (Tue)
02:00:00 clear sky 10.250 10.250 10.250 43 1.85 m/h 0 %
05:00:00 clear sky 8.790 8.790 8.790 48 1.17 m/h 0 %
08:00:00 clear sky 10.490 10.490 10.490 44 0.53 m/h 0 %
11:00:00 clear sky 19.930 19.930 19.930 25 0.84 m/h 0 %
14:00:00 clear sky 22.690 22.690 22.690 21 1.57 m/h 0 %
17:00:00 clear sky 19.210 19.210 19.210 25 0.84 m/h 0 %
20:00:00 clear sky 13.240 13.240 13.240 37 1.32 m/h 0 %
23:00:00 clear sky 11.680 11.680 11.680 40 1.91 m/h 0 %
27-Jan-2021 (Wed)
02:00:00 clear sky 10.150 10.150 10.150 45 1.36 m/h 0 %
05:00:00 clear sky 8.930 8.930 8.930 50 0.85 m/h 0 %
08:00:00 clear sky 10.370 10.370 10.370 46 0.74 m/h 0 %
11:00:00 clear sky 19.770 19.770 19.770 24 1.94 m/h 0 %
14:00:00 clear sky 22.940 22.940 22.940 19 3.2 m/h 0 %
17:00:00 clear sky 19.650 19.650 19.650 24 2.28 m/h 0 %
20:00:00 clear sky 13.300 13.300 13.300 36 1.64 m/h 0 %
23:00:00 clear sky 11.220 11.220 11.220 40 2.02 m/h 0 %
28-Jan-2021 (Thu)
02:00:00 clear sky 9.940 9.940 9.940 44 1.54 m/h 0 %
05:00:00 clear sky 8.720 8.720 8.720 47 1.46 m/h 0 %
08:00:00 clear sky 10.390 10.390 10.390 42 1.24 m/h 0 %
11:00:00 clear sky 20.280 20.280 20.280 22 2.35 m/h 0 %
14:00:00 clear sky 23.640 23.640 23.640 17 3.48 m/h 0 %
17:00:00 clear sky 20.140 20.140 20.140 22 1.98 m/h 0 %

Famous Cities (60)